createdAt,value
2018-01-31T01:53:00.000Z,99541
2018-01-31T01:58:00.000Z,99524
2018-01-31T02:03:00.000Z,99530
2018-01-31T02:08:00.000Z,99525
2018-01-31T02:13:00.000Z,99505
2018-01-31T02:18:00.000Z,99509
2018-01-31T02:23:00.000Z,99497
2018-01-31T02:28:00.000Z,99489
2018-01-31T02:33:00.000Z,99484
2018-01-31T02:38:00.000Z,99488
2018-01-31T02:43:00.000Z,99468
2018-01-31T02:48:00.000Z,99468
2018-01-31T02:53:00.000Z,99459
2018-01-31T02:58:00.000Z,99458
2018-01-31T03:03:00.000Z,99455
2018-01-31T03:08:00.000Z,99446
2018-01-31T03:13:00.000Z,99446
2018-01-31T03:18:00.000Z,99434
2018-01-31T03:23:00.000Z,99426
2018-01-31T03:28:00.000Z,99422
2018-01-31T03:33:00.000Z,99419
2018-01-31T03:38:00.000Z,99420
2018-01-31T03:43:00.000Z,99411
2018-01-31T03:48:00.000Z,99413
2018-01-31T03:53:00.000Z,99419
2018-01-31T03:58:00.000Z,99414
2018-01-31T04:03:00.000Z,99410
2018-01-31T04:08:00.000Z,99407
2018-01-31T04:13:00.000Z,99406
2018-01-31T04:18:00.000Z,99409
2018-01-31T04:23:00.000Z,99407
2018-01-31T04:28:00.000Z,99408
2018-01-31T04:33:00.000Z,99415
2018-01-31T04:38:00.000Z,99406
2018-01-31T04:43:00.000Z,99403
2018-01-31T04:48:00.000Z,99394
2018-01-31T04:53:00.000Z,99388
2018-01-31T04:58:00.000Z,99395
2018-01-31T05:03:00.000Z,99383
2018-01-31T05:08:00.000Z,99387
2018-01-31T05:13:00.000Z,99382
2018-01-31T05:18:00.000Z,99376
2018-01-31T05:23:00.000Z,99376
2018-01-31T05:28:00.000Z,99365
2018-01-31T05:33:00.000Z,99363
2018-01-31T05:38:00.000Z,99367
2018-01-31T05:43:00.000Z,99364
2018-01-31T05:48:00.000Z,99370
2018-01-31T05:53:00.000Z,99368
2018-01-31T05:58:00.000Z,99373
2018-01-31T06:03:00.000Z,99367
2018-01-31T06:08:00.000Z,99359
2018-01-31T06:13:00.000Z,99363
2018-01-31T06:18:00.000Z,99361
2018-01-31T06:23:00.000Z,99361
2018-01-31T06:28:00.000Z,99353
2018-01-31T06:33:00.000Z,99357
2018-01-31T06:38:00.000Z,99361
2018-01-31T06:43:00.000Z,99366
2018-01-31T06:48:00.000Z,99382
2018-01-31T06:53:00.000Z,99368
2018-01-31T06:58:00.000Z,99383
2018-01-31T07:03:00.000Z,99361
2018-01-31T07:08:00.000Z,99374
2018-01-31T07:13:00.000Z,99368
2018-01-31T07:18:00.000Z,99360
2018-01-31T07:24:00.000Z,99357
2018-01-31T07:29:00.000Z,99330
2018-01-31T07:34:00.000Z,99341
2018-01-31T07:39:00.000Z,99334
2018-01-31T07:44:00.000Z,99337
2018-01-31T07:49:00.000Z,99323
2018-01-31T07:54:00.000Z,99322
2018-01-31T07:59:00.000Z,99303
2018-01-31T08:04:00.000Z,99310
2018-01-31T08:09:00.000Z,99301
2018-01-31T08:14:00.000Z,99292
2018-01-31T08:19:00.000Z,99288
2018-01-31T08:24:00.000Z,99290
2018-01-31T08:29:00.000Z,99274
2018-01-31T08:34:00.000Z,99266
2018-01-31T08:39:00.000Z,99262
2018-01-31T08:44:00.000Z,99257
2018-01-31T08:49:00.000Z,99245
2018-01-31T08:54:00.000Z,99239
2018-01-31T08:59:00.000Z,99245
2018-01-31T09:04:00.000Z,99233
2018-01-31T09:09:00.000Z,99240
2018-01-31T09:14:00.000Z,99233
2018-01-31T09:19:00.000Z,99239
2018-01-31T09:24:00.000Z,99233
2018-01-31T09:29:00.000Z,99220
2018-01-31T09:34:00.000Z,99216
2018-01-31T09:39:00.000Z,99205
2018-01-31T09:44:00.000Z,99201
2018-01-31T09:49:00.000Z,99190
2018-01-31T09:54:00.000Z,99188
2018-01-31T09:59:00.000Z,99173
2018-01-31T10:04:00.000Z,99160
2018-01-31T10:09:00.000Z,99166
2018-01-31T10:14:00.000Z,99153
2018-01-31T10:19:00.000Z,99147
2018-01-31T10:24:00.000Z,99133
2018-01-31T10:29:00.000Z,99130
2018-01-31T10:34:00.000Z,99117
2018-01-31T10:39:00.000Z,99097
2018-01-31T10:44:00.000Z,99079
2018-01-31T10:49:00.000Z,99073
2018-01-31T11:01:00.000Z,99027
2018-01-31T11:06:00.000Z,99018
2018-01-31T11:11:00.000Z,98996
2018-01-31T11:16:00.000Z,98985
2018-01-31T11:21:00.000Z,98963
2018-01-31T11:26:00.000Z,98959
2018-01-31T11:31:00.000Z,98948
2018-01-31T11:36:00.000Z,98945
2018-01-31T11:41:00.000Z,98931
2018-01-31T11:46:00.000Z,98921
2018-01-31T11:51:00.000Z,98898
2018-01-31T11:56:00.000Z,98895
2018-01-31T12:01:00.000Z,98868
2018-01-31T12:06:00.000Z,98865
2018-01-31T12:11:00.000Z,98840
2018-01-31T12:16:00.000Z,98817
2018-01-31T12:21:00.000Z,98814
2018-01-31T12:26:00.000Z,98805
2018-01-31T12:31:00.000Z,98791
2018-01-31T12:36:00.000Z,98765
2018-01-31T12:41:00.000Z,98769
2018-01-31T12:46:00.000Z,98756
2018-01-31T12:51:00.000Z,98741
2018-01-31T12:56:00.000Z,98732
2018-01-31T13:01:00.000Z,98710
2018-01-31T13:06:00.000Z,98706
2018-01-31T13:11:00.000Z,98705
2018-01-31T13:16:00.000Z,98685
2018-01-31T13:21:00.000Z,98693
2018-01-31T13:26:00.000Z,98684
2018-01-31T13:31:00.000Z,98669
2018-01-31T13:36:00.000Z,98658
2018-01-31T13:41:00.000Z,98660
2018-01-31T13:46:00.000Z,98652
2018-01-31T13:51:00.000Z,98642
2018-01-31T13:56:00.000Z,98639
2018-01-31T14:01:00.000Z,98630
2018-01-31T14:06:00.000Z,98608
2018-01-31T14:11:00.000Z,98623
2018-01-31T14:16:00.000Z,98616
2018-01-31T14:21:00.000Z,98613
2018-01-31T14:26:00.000Z,98597
2018-01-31T14:31:00.000Z,98576
2018-01-31T14:36:00.000Z,98566
2018-01-31T14:41:00.000Z,98579
2018-01-31T14:46:00.000Z,98565
2018-01-31T14:51:00.000Z,98565
2018-01-31T14:56:00.000Z,98557
2018-01-31T15:01:00.000Z,98556
2018-01-31T15:06:00.000Z,98536
2018-01-31T15:11:00.000Z,98530
2018-01-31T15:16:00.000Z,98518
2018-01-31T15:21:00.000Z,98509
2018-01-31T15:26:00.000Z,98512
2018-01-31T15:31:00.000Z,98502
2018-01-31T15:36:00.000Z,98498
2018-01-31T15:41:00.000Z,98485
2018-01-31T15:47:00.000Z,98457
2018-01-31T15:52:00.000Z,98443
2018-01-31T15:57:00.000Z,98433
2018-01-31T16:02:00.000Z,98429
2018-01-31T16:07:00.000Z,98414
2018-01-31T16:12:00.000Z,98421
2018-01-31T16:17:00.000Z,98415
2018-01-31T16:22:00.000Z,98400
2018-01-31T16:27:00.000Z,98381
2018-01-31T16:32:00.000Z,98361
2018-01-31T16:37:00.000Z,98340
2018-01-31T16:42:00.000Z,98327
2018-01-31T16:47:00.000Z,98343
2018-01-31T16:52:00.000Z,98334
2018-01-31T16:57:00.000Z,98343
2018-01-31T17:02:00.000Z,98346
2018-01-31T17:07:00.000Z,98364
2018-01-31T17:12:00.000Z,98365
2018-01-31T17:17:00.000Z,98371
2018-01-31T17:22:00.000Z,98350
2018-01-31T17:27:00.000Z,98330
2018-01-31T17:32:00.000Z,98326
2018-01-31T17:37:00.000Z,98332
2018-01-31T17:42:00.000Z,98330
2018-01-31T17:47:00.000Z,98322
2018-01-31T17:52:00.000Z,98295
2018-01-31T17:57:00.000Z,98274
2018-01-31T18:02:00.000Z,98282
2018-01-31T18:07:00.000Z,98251
2018-01-31T18:12:00.000Z,98255
2018-01-31T18:17:00.000Z,98251
2018-01-31T18:22:00.000Z,98232
2018-01-31T18:27:00.000Z,98205
2018-01-31T18:32:00.000Z,98221
2018-01-31T18:37:00.000Z,98207
2018-01-31T18:42:00.000Z,98219
2018-01-31T18:47:00.000Z,98228
2018-01-31T18:52:00.000Z,98211
2018-01-31T18:57:00.000Z,98191
2018-01-31T19:02:00.000Z,98191
2018-01-31T19:07:00.000Z,98187
2018-01-31T19:12:00.000Z,98173
2018-01-31T19:17:00.000Z,98137
2018-01-31T19:22:00.000Z,98114
2018-01-31T19:27:00.000Z,98111
2018-01-31T19:32:00.000Z,98097
2018-01-31T19:37:00.000Z,98086
2018-01-31T19:42:00.000Z,98060
2018-01-31T19:47:00.000Z,98058
2018-01-31T19:52:00.000Z,98056
2018-01-31T19:57:00.000Z,98067
2018-01-31T20:02:00.000Z,98063
2018-01-31T20:07:00.000Z,98029
2018-01-31T20:12:00.000Z,98025
2018-01-31T20:17:00.000Z,98029
2018-01-31T20:22:00.000Z,98015
2018-01-31T20:27:00.000Z,98017
2018-01-31T20:32:00.000Z,98010
2018-01-31T20:37:00.000Z,97996
2018-01-31T20:42:00.000Z,97987
2018-01-31T20:47:00.000Z,97956
2018-01-31T20:52:00.000Z,97952
2018-01-31T20:57:00.000Z,97960
2018-01-31T21:02:00.000Z,97963
2018-01-31T21:07:00.000Z,97945
2018-01-31T21:12:00.000Z,97939
2018-01-31T21:17:00.000Z,97940
2018-01-31T21:22:00.000Z,97941
2018-01-31T21:27:00.000Z,97946
2018-01-31T21:32:00.000Z,97925
2018-01-31T21:37:00.000Z,97923
2018-01-31T21:43:00.000Z,97920
2018-01-31T21:48:00.000Z,97918
2018-01-31T21:53:00.000Z,97897
2018-01-31T21:58:00.000Z,97884
2018-01-31T22:03:00.000Z,97876
2018-01-31T22:08:00.000Z,97880
2018-01-31T22:13:00.000Z,97865
2018-01-31T22:18:00.000Z,97861
2018-01-31T22:23:00.000Z,97859
2018-01-31T22:28:00.000Z,97867
2018-01-31T22:33:00.000Z,97854
2018-01-31T22:38:00.000Z,97859
2018-01-31T22:43:00.000Z,97844
2018-01-31T22:48:00.000Z,97842
2018-01-31T22:53:00.000Z,97835
2018-01-31T22:58:00.000Z,97835
2018-01-31T23:03:00.000Z,97826
2018-01-31T23:08:00.000Z,97819
2018-01-31T23:13:00.000Z,97806
2018-01-31T23:18:00.000Z,97799
2018-01-31T23:23:00.000Z,97796
2018-01-31T23:28:00.000Z,97797
2018-01-31T23:33:00.000Z,97779
2018-01-31T23:38:00.000Z,97774
2018-01-31T23:43:00.000Z,97747
2018-01-31T23:48:00.000Z,97749
2018-01-31T23:53:00.000Z,97739
2018-01-31T23:58:00.000Z,97749
